createdAt,value
2024-02-26T00:00:28.280Z,8.57
2024-02-26T00:02:55.518Z,8.45
2024-02-26T00:05:22.809Z,8.47
2024-02-26T00:07:50.470Z,8.53
2024-02-26T00:10:20.705Z,8.63
2024-02-26T00:12:51.164Z,8.67
2024-02-26T00:15:19.081Z,8.73
2024-02-26T00:17:46.550Z,8.76
2024-02-26T00:20:15.384Z,8.67
2024-02-26T00:22:43.201Z,8.53
2024-02-26T00:25:10.634Z,8.54
2024-02-26T00:27:38.234Z,8.35
2024-02-26T00:30:08.679Z,8.45
2024-02-26T00:32:36.547Z,8.44
2024-02-26T00:35:03.961Z,8.42
2024-02-26T00:37:31.534Z,8.38
2024-02-26T00:39:59.100Z,8.38
2024-02-26T00:42:26.850Z,8.42
2024-02-26T00:44:54.143Z,8.47
2024-02-26T00:47:21.718Z,8.47
2024-02-26T00:49:49.281Z,8.42
2024-02-26T00:52:16.733Z,8.40
2024-02-26T00:54:43.730Z,8.39
2024-02-26T00:57:11.405Z,8.40
2024-02-26T00:59:38.785Z,8.42
2024-02-26T01:02:08.192Z,8.44
2024-02-26T01:04:35.620Z,8.44
2024-02-26T01:07:03.079Z,8.48
2024-02-26T01:09:30.313Z,8.55
2024-02-26T01:11:57.588Z,8.58
2024-02-26T01:14:24.995Z,8.58
2024-02-26T01:16:52.044Z,8.69
2024-02-26T01:19:19.270Z,8.72
2024-02-26T01:21:46.732Z,8.74
2024-02-26T01:24:13.997Z,8.73
2024-02-26T01:26:41.394Z,8.69
2024-02-26T01:29:08.615Z,8.66
2024-02-26T01:31:35.946Z,8.70
2024-02-26T01:34:03.598Z,8.71
2024-02-26T01:36:30.812Z,8.73
2024-02-26T01:38:57.973Z,8.75
2024-02-26T01:41:25.172Z,8.75
2024-02-26T01:43:52.701Z,8.75
2024-02-26T01:46:20.085Z,8.72
2024-02-26T01:48:49.120Z,8.72
2024-02-26T01:51:17.511Z,8.69
2024-02-26T01:53:45.051Z,8.68
2024-02-26T01:56:13.616Z,8.70
2024-02-26T01:58:41.019Z,8.70
2024-02-26T02:01:09.115Z,8.68
2024-02-26T02:03:37.277Z,8.63
2024-02-26T02:06:06.880Z,8.63
2024-02-26T02:08:36.474Z,8.53
2024-02-26T02:11:04.155Z,8.45
2024-02-26T02:13:31.648Z,8.41
2024-02-26T02:15:58.891Z,8.43
2024-02-26T02:18:26.201Z,8.40
2024-02-26T02:20:55.083Z,8.40
2024-02-26T02:23:22.237Z,8.39
2024-02-26T02:25:49.330Z,8.41
2024-02-26T02:28:16.906Z,8.43
2024-02-26T02:30:44.198Z,8.42
2024-02-26T02:33:13.121Z,8.54
2024-02-26T02:35:40.346Z,8.56
2024-02-26T02:38:08.053Z,8.62
2024-02-26T02:40:36.032Z,8.63
2024-02-26T02:43:03.360Z,8.59
2024-02-26T02:45:30.591Z,8.58
2024-02-26T02:47:57.926Z,8.57
2024-02-26T02:50:25.126Z,8.57
2024-02-26T02:52:52.461Z,8.49
2024-02-26T02:55:20.058Z,8.46
2024-02-26T02:57:47.234Z,8.45
2024-02-26T03:00:14.649Z,8.46
2024-02-26T03:02:41.908Z,8.45
2024-02-26T03:05:09.715Z,8.52
2024-02-26T03:07:36.873Z,8.52
2024-02-26T03:10:04.492Z,8.49
2024-02-26T03:12:32.161Z,8.44
2024-02-26T03:14:59.381Z,8.45
2024-02-26T03:17:26.552Z,8.37
2024-02-26T03:19:55.473Z,8.34
2024-02-26T03:22:22.888Z,8.27
2024-02-26T03:24:50.140Z,8.21
2024-02-26T03:27:17.434Z,8.18
2024-02-26T03:29:44.917Z,8.13
2024-02-26T03:32:12.035Z,8.14
2024-02-26T03:34:41.223Z,8.21
2024-02-26T03:37:10.652Z,8.26
2024-02-26T03:39:38.711Z,8.36
2024-02-26T03:42:06.167Z,8.46
2024-02-26T03:44:33.627Z,8.46
2024-02-26T03:47:01.115Z,8.44
2024-02-26T03:49:28.553Z,8.45
2024-02-26T03:51:55.803Z,8.41
2024-02-26T03:54:23.560Z,8.44
2024-02-26T03:56:50.679Z,8.42
2024-02-26T03:59:18.217Z,8.47
2024-02-26T04:01:51.381Z,8.44
2024-02-26T04:04:18.497Z,8.41
2024-02-26T04:06:47.766Z,8.43
2024-02-26T04:09:16.062Z,8.38
2024-02-26T04:11:44.846Z,8.35
2024-02-26T04:14:14.018Z,8.29
2024-02-26T04:16:41.185Z,8.30
2024-02-26T04:19:08.490Z,8.22
2024-02-26T04:21:36.390Z,8.16
2024-02-26T04:24:03.899Z,8.13
2024-02-26T04:26:32.137Z,8.09
2024-02-26T04:28:59.300Z,8.13
2024-02-26T04:31:27.532Z,8.19
2024-02-26T04:33:54.931Z,8.28
2024-02-26T04:36:23.548Z,8.25
2024-02-26T04:38:50.872Z,8.33
2024-02-26T04:41:18.108Z,8.34
2024-02-26T04:43:45.428Z,8.38
2024-02-26T04:46:12.859Z,8.37
2024-02-26T04:48:40.581Z,8.34
2024-02-26T04:51:08.199Z,8.32
2024-02-26T04:53:35.409Z,8.36
2024-02-26T04:56:02.832Z,8.38
2024-02-26T04:58:30.336Z,8.39
2024-02-26T05:00:57.515Z,8.36
2024-02-26T05:03:24.658Z,8.42
2024-02-26T05:05:52.054Z,8.44
2024-02-26T05:08:19.144Z,8.46
2024-02-26T05:10:49.359Z,8.52
2024-02-26T05:13:19.152Z,8.57
2024-02-26T05:15:48.240Z,8.67
2024-02-26T05:18:15.354Z,8.74
2024-02-26T05:20:42.751Z,8.83
2024-02-26T05:23:10.985Z,9.00
2024-02-26T05:25:38.163Z,9.17
2024-02-26T05:28:05.680Z,9.34
2024-02-26T05:30:32.976Z,9.46
2024-02-26T05:33:00.252Z,9.50
2024-02-26T05:35:27.437Z,9.64
2024-02-26T05:37:55.203Z,9.62
2024-02-26T05:40:22.609Z,9.71
2024-02-26T05:42:50.397Z,9.60
2024-02-26T05:45:18.103Z,9.60
2024-02-26T05:47:45.474Z,9.61
2024-02-26T05:50:12.909Z,9.59
2024-02-26T05:52:40.198Z,9.56
2024-02-26T05:55:08.339Z,9.55
2024-02-26T05:57:35.975Z,9.49
2024-02-26T06:00:05.477Z,9.53
2024-02-26T06:02:41.729Z,9.51
2024-02-26T06:05:10.329Z,9.49
2024-02-26T06:07:37.968Z,9.35
2024-02-26T06:10:06.162Z,9.38
2024-02-26T06:12:36.948Z,9.35
2024-02-26T06:15:05.701Z,9.31
2024-02-26T06:17:32.965Z,9.28
2024-02-26T06:20:03.229Z,9.28
2024-02-26T06:22:31.083Z,9.25
2024-02-26T06:24:58.370Z,9.24
2024-02-26T06:27:25.852Z,9.15
2024-02-26T06:29:54.996Z,9.18
2024-02-26T06:32:24.405Z,9.10
2024-02-26T06:34:51.807Z,9.16
2024-02-26T06:37:19.010Z,9.14
2024-02-26T06:39:47.386Z,9.10
2024-02-26T06:42:14.774Z,9.10
2024-02-26T06:44:42.370Z,9.15
2024-02-26T06:47:12.863Z,9.12
2024-02-26T06:49:40.386Z,9.13
2024-02-26T06:52:07.701Z,9.09
2024-02-26T06:54:35.067Z,9.13
2024-02-26T06:57:02.315Z,9.13
2024-02-26T06:59:58.524Z,9.16
2024-02-26T07:02:26.297Z,9.03
2024-02-26T07:04:53.661Z,9.11
2024-02-26T07:07:20.886Z,9.18
2024-02-26T07:09:49.371Z,9.19
2024-02-26T07:12:17.519Z,9.23
2024-02-26T07:14:44.724Z,9.32
2024-02-26T07:17:11.952Z,9.27
2024-02-26T07:19:39.197Z,9.30
2024-02-26T07:22:09.347Z,9.28
2024-02-26T07:24:36.595Z,9.41
2024-02-26T07:27:04.180Z,9.43
2024-02-26T07:29:31.548Z,9.47
2024-02-26T07:31:59.514Z,9.56
2024-02-26T07:34:30.948Z,9.56
2024-02-26T07:36:58.553Z,9.60
2024-02-26T07:39:25.644Z,9.66
2024-02-26T07:41:54.727Z,9.64
2024-02-26T07:44:22.167Z,9.69
2024-02-26T07:46:49.498Z,9.74
2024-02-26T07:49:16.941Z,9.75
2024-02-26T07:51:44.408Z,9.78
2024-02-26T07:54:11.675Z,9.80
2024-02-26T07:56:39.110Z,9.87
2024-02-26T07:59:06.156Z,9.92
2024-02-26T08:01:33.493Z,9.98
2024-02-26T08:04:00.874Z,10.08
2024-02-26T08:06:28.766Z,10.02
2024-02-26T08:08:56.052Z,10.03
2024-02-26T08:11:23.579Z,9.96
2024-02-26T08:13:51.224Z,9.96
2024-02-26T08:16:20.832Z,9.96
2024-02-26T08:18:48.157Z,9.94
2024-02-26T08:21:15.425Z,10.02
2024-02-26T08:23:45.212Z,10.02
2024-02-26T08:26:13.184Z,10.01
2024-02-26T08:28:40.525Z,9.98
2024-02-26T08:31:08.152Z,10.04
2024-02-26T08:33:36.874Z,10.08
2024-02-26T08:36:08.018Z,10.13
2024-02-26T08:38:37.359Z,10.17
2024-02-26T08:41:05.582Z,10.21
2024-02-26T08:43:32.812Z,10.25
2024-02-26T08:45:59.974Z,10.28
2024-02-26T08:48:27.484Z,10.30
2024-02-26T08:50:54.676Z,10.34
2024-02-26T08:53:27.816Z,10.35
2024-02-26T08:55:59.246Z,10.42
2024-02-26T08:58:26.413Z,10.47
2024-02-26T09:00:54.043Z,10.47
2024-02-26T09:03:21.540Z,10.52
2024-02-26T09:05:49.442Z,10.64
2024-02-26T09:08:16.930Z,10.68
2024-02-26T09:10:44.329Z,10.76
2024-02-26T09:13:11.494Z,10.80
2024-02-26T09:15:38.841Z,10.80
2024-02-26T09:18:06.465Z,10.82
2024-02-26T09:20:33.735Z,10.86
2024-02-26T09:23:03.958Z,10.90
2024-02-26T09:25:31.299Z,10.93
2024-02-26T09:27:58.430Z,10.91
2024-02-26T09:30:25.928Z,10.93
2024-02-26T09:32:53.173Z,10.99
2024-02-26T09:35:20.533Z,10.97
2024-02-26T09:37:47.828Z,10.93
2024-02-26T09:40:14.887Z,10.93
2024-02-26T09:42:47.894Z,11.01
2024-02-26T09:45:23.225Z,10.99
2024-02-26T09:47:51.501Z,10.95
2024-02-26T09:50:24.052Z,10.93
2024-02-26T09:52:54.453Z,10.89
2024-02-26T09:55:21.968Z,10.89
2024-02-26T09:57:52.848Z,10.83
2024-02-26T10:00:20.762Z,10.93
2024-02-26T10:02:49.268Z,10.87
2024-02-26T10:05:22.602Z,10.87
2024-02-26T10:07:50.560Z,10.83
2024-02-26T10:10:19.061Z,10.90
2024-02-26T10:12:46.476Z,10.88
2024-02-26T10:15:14.820Z,10.86
2024-02-26T10:17:42.832Z,10.81
2024-02-26T10:20:16.411Z,10.84
2024-02-26T10:22:43.954Z,10.88
2024-02-26T10:25:14.118Z,10.83
2024-02-26T10:27:44.727Z,10.87
2024-02-26T10:30:22.990Z,10.82
2024-02-26T10:32:51.742Z,10.80
2024-02-26T10:35:22.333Z,10.75
2024-02-26T10:37:53.872Z,10.68
2024-02-26T10:40:21.201Z,10.54
2024-02-26T10:42:48.613Z,10.56
2024-02-26T10:45:16.161Z,10.48
2024-02-26T10:47:44.042Z,10.47
2024-02-26T10:50:14.593Z,10.50
2024-02-26T10:52:43.706Z,10.55
2024-02-26T10:55:21.866Z,10.57
2024-02-26T10:57:53.863Z,10.49
2024-02-26T11:00:21.195Z,10.61
2024-02-26T11:02:49.675Z,10.64
2024-02-26T11:05:18.572Z,10.62
2024-02-26T11:07:48.323Z,10.59
2024-02-26T11:10:18.666Z,10.61
2024-02-26T11:12:47.563Z,10.57
2024-02-26T11:15:15.477Z,10.59
2024-02-26T11:17:44.354Z,10.61
2024-02-26T11:20:14.142Z,10.64
2024-02-26T11:22:42.189Z,10.58
2024-02-26T11:25:10.205Z,10.57
2024-02-26T11:27:45.250Z,10.60
2024-02-26T11:30:15.457Z,10.74
2024-02-26T11:32:47.110Z,10.79
2024-02-26T11:35:16.651Z,10.79
2024-02-26T11:37:56.005Z,10.85
2024-02-26T11:40:27.234Z,10.84
2024-02-26T11:42:55.540Z,10.82
2024-02-26T11:45:41.280Z,10.82
2024-02-26T11:48:15.870Z,10.77
2024-02-26T11:50:45.030Z,10.80
2024-02-26T11:53:27.098Z,10.85
2024-02-26T11:56:31.823Z,10.95
2024-02-26T11:59:08.335Z,10.98
2024-02-26T12:01:40.252Z,10.97
2024-02-26T12:04:12.955Z,11.01
2024-02-26T12:06:57.797Z,11.12
2024-02-26T12:09:43.230Z,11.30
2024-02-26T12:12:15.143Z,11.39
2024-02-26T12:14:57.135Z,11.43
2024-02-26T12:17:25.876Z,11.45
2024-02-26T12:19:54.947Z,11.55
2024-02-26T12:22:22.249Z,11.57
2024-02-26T12:24:59.617Z,11.58
2024-02-26T12:27:27.340Z,11.65
2024-02-26T12:29:55.300Z,11.70
2024-02-26T12:32:22.532Z,11.64
2024-02-26T12:34:50.831Z,11.75
2024-02-26T12:37:18.304Z,11.77
2024-02-26T12:39:47.186Z,11.79
2024-02-26T12:42:16.206Z,11.87
2024-02-26T12:44:43.461Z,11.86
2024-02-26T12:47:11.879Z,11.93
2024-02-26T12:49:39.477Z,12.03
2024-02-26T12:52:08.417Z,11.99
2024-02-26T12:54:36.116Z,11.98
2024-02-26T12:57:07.194Z,12.03
2024-02-26T12:59:36.823Z,12.02
2024-02-26T13:02:07.963Z,12.05
2024-02-26T13:04:36.694Z,12.14
2024-02-26T13:07:07.338Z,12.17
2024-02-26T13:09:38.807Z,12.21
2024-02-26T13:12:07.607Z,12.12
2024-02-26T13:14:35.345Z,12.07
2024-02-26T13:17:03.580Z,12.09
2024-02-26T13:19:31.122Z,12.08
2024-02-26T13:22:08.329Z,12.19
2024-02-26T13:24:36.931Z,12.13
2024-02-26T13:27:06.507Z,12.09
2024-02-26T13:29:34.098Z,12.15
2024-02-26T13:32:01.903Z,12.13
2024-02-26T13:34:32.069Z,12.12
2024-02-26T13:36:59.789Z,12.12
2024-02-26T13:39:28.986Z,12.09
2024-02-26T13:41:56.498Z,12.17
2024-02-26T13:44:25.473Z,12.11
2024-02-26T13:46:53.255Z,12.09
2024-02-26T13:49:20.709Z,12.11
2024-02-26T13:51:47.975Z,12.16
2024-02-26T13:54:16.378Z,12.19
2024-02-26T13:56:45.795Z,12.20
2024-02-26T13:59:14.533Z,12.20
2024-02-26T14:01:41.926Z,12.21
2024-02-26T14:04:10.717Z,12.18
2024-02-26T14:06:38.741Z,12.16
2024-02-26T14:09:06.257Z,12.27
2024-02-26T14:11:34.923Z,12.26
2024-02-26T14:14:02.448Z,12.30
2024-02-26T14:16:32.481Z,12.30
2024-02-26T14:19:00.734Z,12.30
2024-02-26T14:21:28.776Z,12.26
2024-02-26T14:23:56.919Z,12.27
2024-02-26T14:26:24.870Z,12.28
2024-02-26T14:28:52.283Z,12.38
2024-02-26T14:31:20.031Z,12.37
2024-02-26T14:33:48.072Z,12.43
2024-02-26T14:36:16.238Z,12.44
2024-02-26T14:38:43.469Z,12.45
2024-02-26T14:41:11.669Z,12.44
2024-02-26T14:43:40.130Z,12.44
2024-02-26T14:46:07.360Z,12.38
2024-02-26T14:48:34.644Z,12.34
2024-02-26T14:51:02.254Z,12.41
2024-02-26T14:53:29.920Z,12.42
2024-02-26T14:55:57.281Z,12.37
2024-02-26T14:58:24.577Z,12.32
2024-02-26T15:00:52.871Z,12.43
2024-02-26T15:03:20.450Z,12.48
2024-02-26T15:05:48.026Z,12.49
2024-02-26T15:08:17.680Z,12.50
2024-02-26T15:10:49.396Z,12.51
2024-02-26T15:13:17.169Z,12.60
2024-02-26T15:15:44.665Z,12.62
2024-02-26T15:18:16.967Z,12.57
2024-02-26T15:20:45.148Z,12.53
2024-02-26T15:23:13.152Z,12.48
2024-02-26T15:25:42.565Z,12.50
2024-02-26T15:28:11.511Z,12.59
2024-02-26T15:30:38.692Z,12.57
2024-02-26T15:33:06.197Z,12.55
2024-02-26T15:35:33.598Z,12.52
2024-02-26T15:38:00.841Z,12.49
2024-02-26T15:40:28.331Z,12.50
2024-02-26T15:42:55.657Z,12.50
2024-02-26T15:45:23.038Z,12.50
2024-02-26T15:47:50.630Z,12.53
2024-02-26T15:50:18.165Z,12.44
2024-02-26T15:52:45.575Z,12.40
2024-02-26T15:55:17.065Z,12.44
2024-02-26T15:57:46.073Z,12.35
2024-02-26T16:00:17.096Z,12.38
2024-02-26T16:02:44.885Z,12.36
2024-02-26T16:05:14.168Z,12.33
2024-02-26T16:07:53.177Z,12.31
2024-02-26T16:10:21.058Z,12.33
2024-02-26T16:12:53.632Z,12.27
2024-02-26T16:15:24.330Z,12.28
2024-02-26T16:17:53.728Z,12.30
2024-02-26T16:20:22.638Z,12.25
2024-02-26T16:22:50.255Z,12.26
2024-02-26T16:25:19.821Z,12.28
2024-02-26T16:27:48.143Z,12.27
2024-02-26T16:30:15.538Z,12.28
2024-02-26T16:32:45.813Z,12.30
2024-02-26T16:35:13.372Z,12.29
2024-02-26T16:37:40.984Z,12.30
2024-02-26T16:40:12.746Z,12.32
2024-02-26T16:42:40.203Z,12.40
2024-02-26T16:45:07.973Z,12.42
2024-02-26T16:47:37.794Z,12.50
2024-02-26T16:50:07.410Z,12.49
2024-02-26T16:52:35.011Z,12.58
2024-02-26T16:55:05.291Z,12.56
2024-02-26T16:57:33.917Z,12.52
2024-02-26T17:00:01.304Z,12.50
2024-02-26T17:02:29.587Z,12.57
2024-02-26T17:04:56.946Z,12.64
2024-02-26T17:07:26.266Z,12.60
2024-02-26T17:09:56.377Z,12.66
2024-02-26T17:12:23.718Z,12.62
2024-02-26T17:14:52.290Z,12.60
2024-02-26T17:17:20.194Z,12.63
2024-02-26T17:19:47.706Z,12.59
2024-02-26T17:22:15.392Z,12.58
2024-02-26T17:24:42.930Z,12.51
2024-02-26T17:27:10.197Z,12.52
2024-02-26T17:29:38.353Z,12.57
2024-02-26T17:32:09.587Z,12.56
2024-02-26T17:34:39.644Z,12.59
2024-02-26T17:37:07.437Z,12.54
2024-02-26T17:39:35.065Z,12.48
2024-02-26T17:42:02.629Z,12.42
2024-02-26T17:44:41.282Z,12.41
2024-02-26T17:47:09.716Z,12.42
2024-02-26T17:49:37.043Z,12.41
2024-02-26T17:52:04.620Z,12.35
2024-02-26T17:54:31.897Z,12.42
2024-02-26T17:57:00.500Z,12.46
2024-02-26T17:59:30.031Z,12.51
2024-02-26T18:01:57.418Z,12.52
2024-02-26T18:04:25.374Z,12.50
2024-02-26T18:06:53.192Z,12.45
2024-02-26T18:09:20.627Z,12.42
2024-02-26T18:11:48.360Z,12.51
2024-02-26T18:14:17.262Z,12.56
2024-02-26T18:16:44.932Z,12.42
2024-02-26T18:19:12.326Z,12.25
2024-02-26T18:21:39.730Z,12.15
2024-02-26T18:24:07.632Z,12.04
2024-02-26T18:26:35.499Z,11.98
2024-02-26T18:29:03.260Z,11.94
2024-02-26T18:31:30.839Z,11.82
2024-02-26T18:33:58.596Z,11.76
2024-02-26T18:36:26.391Z,11.63
2024-02-26T18:38:54.164Z,11.56
2024-02-26T18:41:23.373Z,11.45
2024-02-26T18:43:52.676Z,11.39
2024-02-26T18:46:20.709Z,11.38
2024-02-26T18:48:49.831Z,11.17
2024-02-26T18:51:17.784Z,11.16
2024-02-26T18:53:46.545Z,11.16
2024-02-26T18:56:15.719Z,11.15
2024-02-26T18:58:44.461Z,11.11
2024-02-26T19:01:12.599Z,11.04
2024-02-26T19:03:40.325Z,10.95
2024-02-26T19:06:10.531Z,11.02
2024-02-26T19:08:41.980Z,11.07
2024-02-26T19:11:09.935Z,11.05
2024-02-26T19:13:40.253Z,11.03
2024-02-26T19:16:08.172Z,10.93
2024-02-26T19:18:35.653Z,10.96
2024-02-26T19:21:04.235Z,11.02
2024-02-26T19:23:38.170Z,11.02
2024-02-26T19:26:08.277Z,10.89
2024-02-26T19:28:35.767Z,10.99
2024-02-26T19:31:03.174Z,10.93
2024-02-26T19:33:33.516Z,10.83
2024-02-26T19:36:01.621Z,10.79
2024-02-26T19:38:29.406Z,10.72
2024-02-26T19:40:57.635Z,10.70
2024-02-26T19:43:25.318Z,10.65
2024-02-26T19:45:52.958Z,10.53
2024-02-26T19:48:20.721Z,10.56
2024-02-26T19:50:49.065Z,10.56
2024-02-26T19:53:19.529Z,10.60
2024-02-26T19:55:50.531Z,10.63
2024-02-26T19:58:20.815Z,10.61
2024-02-26T20:00:49.679Z,10.61
2024-02-26T20:03:19.742Z,10.59
2024-02-26T20:05:47.724Z,10.52
2024-02-26T20:08:18.556Z,10.56
2024-02-26T20:10:51.607Z,10.34
2024-02-26T20:13:23.429Z,10.37
2024-02-26T20:15:50.779Z,10.33
2024-02-26T20:18:18.592Z,10.38
2024-02-26T20:20:45.838Z,10.40
2024-02-26T20:23:16.496Z,10.52
2024-02-26T20:25:44.651Z,10.59
2024-02-26T20:28:12.790Z,10.48
2024-02-26T20:30:40.361Z,10.52
2024-02-26T20:33:07.844Z,10.62
2024-02-26T20:35:36.315Z,10.49
2024-02-26T20:38:04.031Z,10.49
2024-02-26T20:40:33.512Z,10.41
2024-02-26T20:43:00.955Z,10.40
2024-02-26T20:45:29.605Z,10.33
2024-02-26T20:48:00.579Z,10.25
2024-02-26T20:50:28.340Z,10.14
2024-02-26T20:52:55.946Z,10.14
2024-02-26T20:55:23.212Z,10.11
2024-02-26T20:57:50.803Z,10.17
2024-02-26T21:00:18.647Z,10.06
2024-02-26T21:02:46.139Z,10.02
2024-02-26T21:05:14.434Z,9.91
2024-02-26T21:07:43.220Z,10.01
2024-02-26T21:10:11.307Z,10.05
2024-02-26T21:12:39.510Z,10.12
2024-02-26T21:15:07.488Z,10.20
2024-02-26T21:17:35.229Z,10.22
2024-02-26T21:20:02.814Z,10.25
2024-02-26T21:22:31.276Z,10.30
2024-02-26T21:24:58.821Z,10.35
2024-02-26T21:27:26.997Z,10.30
2024-02-26T21:29:54.476Z,10.30
2024-02-26T21:32:24.077Z,10.38
2024-02-26T21:34:51.368Z,10.39
2024-02-26T21:37:18.887Z,10.37
2024-02-26T21:39:46.023Z,10.38
2024-02-26T21:42:13.580Z,10.28
2024-02-26T21:44:41.145Z,10.16
2024-02-26T21:47:08.787Z,10.12
2024-02-26T21:49:36.771Z,10.12
2024-02-26T21:52:07.547Z,10.17
2024-02-26T21:54:36.120Z,10.19
2024-02-26T21:57:04.787Z,10.15
2024-02-26T21:59:32.420Z,10.19
2024-02-26T22:02:00.137Z,10.21
2024-02-26T22:04:27.814Z,10.24
2024-02-26T22:06:55.591Z,10.29
2024-02-26T22:09:23.484Z,10.30
2024-02-26T22:11:54.131Z,10.35
2024-02-26T22:14:23.501Z,10.32
2024-02-26T22:16:53.704Z,10.22
2024-02-26T22:19:21.530Z,10.28
2024-02-26T22:21:49.287Z,10.25
2024-02-26T22:24:16.831Z,10.20
2024-02-26T22:26:45.655Z,10.23
2024-02-26T22:29:13.368Z,10.34
2024-02-26T22:31:43.998Z,10.42
2024-02-26T22:34:11.856Z,10.38
2024-02-26T22:36:39.691Z,10.26
2024-02-26T22:39:08.850Z,10.21
2024-02-26T22:41:43.195Z,10.19
2024-02-26T22:44:15.387Z,10.21
2024-02-26T22:46:43.834Z,10.09
2024-02-26T22:49:11.998Z,10.05
2024-02-26T22:51:40.159Z,10.13
2024-02-26T22:54:08.252Z,10.23
2024-02-26T22:56:35.811Z,10.12
2024-02-26T22:59:06.470Z,9.99
2024-02-26T23:01:34.566Z,9.86
2024-02-26T23:04:02.375Z,9.81
2024-02-26T23:06:30.462Z,9.50
2024-02-26T23:08:58.289Z,9.52
2024-02-26T23:11:25.730Z,9.79
2024-02-26T23:13:53.930Z,9.95
2024-02-26T23:16:21.328Z,9.80
2024-02-26T23:18:50.520Z,9.76
2024-02-26T23:21:19.665Z,9.77
2024-02-26T23:24:02.679Z,9.86
2024-02-26T23:26:29.766Z,9.81
2024-02-26T23:28:57.306Z,9.70
2024-02-26T23:31:24.886Z,9.59
2024-02-26T23:33:54.456Z,9.59
2024-02-26T23:36:21.914Z,9.65
2024-02-26T23:38:49.644Z,9.75
2024-02-26T23:41:17.373Z,9.93
2024-02-26T23:43:44.683Z,9.83
2024-02-26T23:46:11.964Z,9.83
2024-02-26T23:48:39.167Z,10.02
2024-02-26T23:51:06.512Z,10.01
2024-02-26T23:53:33.908Z,9.73
2024-02-26T23:56:01.634Z,9.55
2024-02-26T23:58:29.031Z,9.53
